createdAt,value
2018-02-13T00:00:01.950Z,17.63
2018-02-13T00:02:32.433Z,12.17
2018-02-13T00:05:01.338Z,18.87
2018-02-13T00:07:30.178Z,19.80
2018-02-13T00:09:59.000Z,16.80
2018-02-13T00:12:27.870Z,16.87
2018-02-13T00:14:56.699Z,16.63
2018-02-13T00:17:25.567Z,14.93
2018-02-13T00:19:54.426Z,14.60
2018-02-13T00:22:23.263Z,16.57
2018-02-13T00:24:52.126Z,20.00
2018-02-13T00:27:20.966Z,15.77
2018-02-13T00:29:50.585Z,19.97
2018-02-13T00:32:20.196Z,12.33
2018-02-13T00:34:50.745Z,17.03
2018-02-13T00:37:19.576Z,17.77
2018-02-13T00:39:48.405Z,18.77
2018-02-13T00:42:17.474Z,12.60
2018-02-13T00:44:46.341Z,14.00
2018-02-13T00:47:15.967Z,12.70
2018-02-13T00:49:44.830Z,13.57
2018-02-13T00:52:13.655Z,14.20
2018-02-13T00:54:42.551Z,12.93
2018-02-13T00:57:12.133Z,13.87
2018-02-13T00:59:40.985Z,15.53
2018-02-13T01:02:09.880Z,12.27
2018-02-13T01:04:38.723Z,16.73
2018-02-13T01:07:07.601Z,10.70
2018-02-13T01:09:36.470Z,12.10
2018-02-13T01:12:06.127Z,16.30
2018-02-13T01:14:34.918Z,16.70
2018-02-13T01:17:04.571Z,14.90
2018-02-13T01:19:34.219Z,12.83
2018-02-13T01:22:03.046Z,12.30
2018-02-13T01:24:31.885Z,11.73
2018-02-13T01:27:00.718Z,14.13
2018-02-13T01:29:30.333Z,13.03
2018-02-13T01:31:59.179Z,13.47
2018-02-13T01:34:28.021Z,11.37
2018-02-13T01:36:56.862Z,15.33
2018-02-13T01:39:26.698Z,17.87
2018-02-13T01:41:55.542Z,12.70
2018-02-13T01:44:24.383Z,12.10
2018-02-13T01:46:53.213Z,8.80
2018-02-13T01:49:22.053Z,10.70
2018-02-13T01:51:50.890Z,8.63
2018-02-13T01:54:19.707Z,10.80
2018-02-13T01:56:49.313Z,10.30
2018-02-13T01:59:18.140Z,9.87
2018-02-13T02:01:46.966Z,8.80
2018-02-13T02:04:15.811Z,10.20
2018-02-13T02:06:45.412Z,9.50
2018-02-13T02:09:15.018Z,14.90
2018-02-13T02:11:43.858Z,10.60
2018-02-13T02:14:12.701Z,11.43
2018-02-13T02:16:41.540Z,13.80
2018-02-13T02:19:10.377Z,11.40
2018-02-13T02:21:39.266Z,8.03
2018-02-13T02:24:08.470Z,11.30
2018-02-13T02:26:37.278Z,8.40
2018-02-13T02:29:06.107Z,15.87
2018-02-13T02:31:35.737Z,17.80
2018-02-13T02:34:05.330Z,19.17
2018-02-13T02:36:34.956Z,18.80
2018-02-13T02:39:04.550Z,13.77
2018-02-13T02:41:33.415Z,9.60
2018-02-13T02:44:03.026Z,10.20
2018-02-13T02:46:32.634Z,10.63
2018-02-13T02:49:02.467Z,10.53
2018-02-13T02:51:32.058Z,9.30
2018-02-13T02:54:01.653Z,10.57
2018-02-13T02:56:31.293Z,10.90
2018-02-13T02:59:00.133Z,12.43
2018-02-13T03:01:29.169Z,10.50
2018-02-13T03:03:57.987Z,9.93
2018-02-13T03:06:26.834Z,7.50
2018-02-13T03:08:57.323Z,11.13
2018-02-13T03:11:26.112Z,10.97
2018-02-13T03:13:54.976Z,9.90
2018-02-13T03:16:23.827Z,7.10
2018-02-13T03:18:53.446Z,10.87
2018-02-13T03:21:23.039Z,14.93
2018-02-13T03:23:52.648Z,5.97
2018-02-13T03:26:22.274Z,8.10
2018-02-13T03:28:51.109Z,10.63
2018-02-13T03:31:19.939Z,8.60
2018-02-13T03:33:49.533Z,10.47
2018-02-13T03:36:19.122Z,10.10
2018-02-13T03:38:47.953Z,6.40
2018-02-13T03:41:16.777Z,10.17
2018-02-13T03:43:45.609Z,12.43
2018-02-13T03:46:14.441Z,6.53
2018-02-13T03:48:43.262Z,8.60
2018-02-13T03:51:12.889Z,10.57
2018-02-13T03:53:41.706Z,9.83
2018-02-13T03:56:10.549Z,6.73
2018-02-13T03:58:40.141Z,6.03
2018-02-13T04:01:08.986Z,10.10
2018-02-13T04:03:37.800Z,6.77
2018-02-13T04:06:06.641Z,6.47
2018-02-13T04:08:35.522Z,8.93
2018-02-13T04:11:04.290Z,9.83
2018-02-13T04:13:33.925Z,12.60
2018-02-13T04:16:02.742Z,8.80
2018-02-13T04:18:31.601Z,11.07
2018-02-13T04:21:00.775Z,5.73
2018-02-13T04:23:30.426Z,10.87
2018-02-13T04:25:59.973Z,9.30
2018-02-13T04:28:28.817Z,7.00
2018-02-13T04:30:57.643Z,11.80
2018-02-13T04:33:26.493Z,16.03
2018-02-13T04:35:55.382Z,11.50
2018-02-13T04:38:24.978Z,10.40
2018-02-13T04:40:53.821Z,11.20
2018-02-13T04:43:22.651Z,5.50
2018-02-13T04:45:51.484Z,7.53
2018-02-13T04:48:21.070Z,11.07
2018-02-13T04:50:49.927Z,16.57
2018-02-13T04:53:18.762Z,6.37
2018-02-13T04:55:48.795Z,7.93
2018-02-13T04:58:18.470Z,6.80
2018-02-13T05:00:47.301Z,7.80
2018-02-13T05:03:16.153Z,6.90
2018-02-13T05:05:45.763Z,7.63
2018-02-13T05:08:15.370Z,13.50
2018-02-13T05:10:44.977Z,8.20
2018-02-13T05:13:14.573Z,8.03
2018-02-13T05:15:43.400Z,16.30
2018-02-13T05:18:12.251Z,7.03
2018-02-13T05:20:41.254Z,12.50
2018-02-13T05:23:10.866Z,10.10
2018-02-13T05:25:40.499Z,10.30
2018-02-13T05:28:09.302Z,7.00
2018-02-13T05:30:38.153Z,9.80
2018-02-13T05:33:07.753Z,11.20
2018-02-13T05:35:37.365Z,10.53
2018-02-13T05:38:06.536Z,8.53
2018-02-13T05:40:35.375Z,9.27
2018-02-13T05:43:04.557Z,6.03
2018-02-13T05:45:34.166Z,5.20
2018-02-13T05:48:03.027Z,10.83
2018-02-13T05:50:32.627Z,11.17
2018-02-13T05:53:01.453Z,23.47
2018-02-13T05:55:30.271Z,7.03
2018-02-13T05:57:59.127Z,13.43
2018-02-13T06:00:27.974Z,12.37
2018-02-13T06:02:56.801Z,8.00
2018-02-13T06:05:25.618Z,7.87
2018-02-13T06:07:54.455Z,5.47
2018-02-13T06:10:24.095Z,7.80
2018-02-13T06:12:54.501Z,6.67
2018-02-13T06:15:24.097Z,5.23
2018-02-13T06:17:54.245Z,12.20
2018-02-13T06:20:23.241Z,15.03
2018-02-13T06:22:52.080Z,9.63
2018-02-13T06:25:20.970Z,9.00
2018-02-13T06:27:49.753Z,6.70
2018-02-13T06:30:18.601Z,7.93
2018-02-13T06:32:47.407Z,8.00
2018-02-13T06:35:16.244Z,6.00
2018-02-13T06:37:45.847Z,8.20
2018-02-13T06:40:15.481Z,4.53
2018-02-13T06:42:44.309Z,8.13
2018-02-13T06:45:13.177Z,9.20
2018-02-13T06:47:42.766Z,7.93
2018-02-13T06:50:11.593Z,6.27
2018-02-13T06:52:40.437Z,9.10
2018-02-13T06:55:09.288Z,11.87
2018-02-13T06:57:39.655Z,6.20
2018-02-13T07:00:08.518Z,8.90
2018-02-13T07:02:38.104Z,8.60
2018-02-13T07:05:06.930Z,12.33
2018-02-13T07:07:36.689Z,8.83
2018-02-13T07:10:05.534Z,8.30
2018-02-13T07:12:34.346Z,7.90
2018-02-13T07:15:03.178Z,8.73
2018-02-13T07:17:32.746Z,4.50
2018-02-13T07:20:01.705Z,8.90
2018-02-13T07:22:30.550Z,7.40
2018-02-13T07:24:59.381Z,7.97
2018-02-13T07:27:28.203Z,8.43
2018-02-13T07:29:57.062Z,10.40
2018-02-13T07:32:25.869Z,5.90
2018-02-13T07:34:54.750Z,11.30
2018-02-13T07:37:23.593Z,5.53
2018-02-13T07:39:52.431Z,7.47
2018-02-13T07:42:21.260Z,7.83
2018-02-13T07:44:50.101Z,8.73
2018-02-13T07:47:19.698Z,12.10
2018-02-13T07:49:49.308Z,9.03
2018-02-13T07:52:18.934Z,5.00
2018-02-13T07:54:47.766Z,7.37
2018-02-13T07:57:17.597Z,9.73
2018-02-13T07:59:46.425Z,7.03
2018-02-13T08:02:15.335Z,8.60
2018-02-13T08:04:44.122Z,8.90
2018-02-13T08:07:12.955Z,5.80
2018-02-13T08:09:42.545Z,9.67
2018-02-13T08:12:11.405Z,7.20
2018-02-13T08:14:40.468Z,4.87
2018-02-13T08:17:10.067Z,4.37
2018-02-13T08:19:39.641Z,8.07
2018-02-13T08:22:08.484Z,5.03
2018-02-13T08:24:37.298Z,5.73
2018-02-13T08:27:06.160Z,9.17
2018-02-13T08:29:34.984Z,6.03
2018-02-13T08:32:03.802Z,11.80
2018-02-13T08:34:33.469Z,11.13
2018-02-13T08:37:02.310Z,10.57
2018-02-13T08:39:31.906Z,11.63
2018-02-13T08:42:00.920Z,7.00
2018-02-13T08:44:30.506Z,9.30
2018-02-13T08:47:00.138Z,11.57
2018-02-13T08:49:29.007Z,9.50
2018-02-13T08:51:58.686Z,7.20
2018-02-13T08:54:27.533Z,6.30
2018-02-13T08:56:56.362Z,20.63
2018-02-13T08:59:25.217Z,12.30
2018-02-13T09:01:54.059Z,10.53
2018-02-13T09:04:22.888Z,4.77
2018-02-13T09:06:51.704Z,6.17
2018-02-13T09:09:20.571Z,7.70
2018-02-13T09:11:49.382Z,8.20
2018-02-13T09:14:18.209Z,6.80
2018-02-13T09:16:48.353Z,9.73
2018-02-13T09:19:17.966Z,6.27
2018-02-13T09:21:47.566Z,9.63
2018-02-13T09:24:17.155Z,3.57
2018-02-13T09:26:46.760Z,7.40
2018-02-13T09:29:16.358Z,8.43
2018-02-13T09:31:46.179Z,6.33
2018-02-13T09:34:15.827Z,7.20
2018-02-13T09:36:44.598Z,6.60
2018-02-13T09:39:13.432Z,6.37
2018-02-13T09:41:42.256Z,8.00
2018-02-13T09:44:11.087Z,8.30
2018-02-13T09:46:39.947Z,10.47
2018-02-13T09:49:08.766Z,5.40
2018-02-13T09:51:37.636Z,11.83
2018-02-13T09:54:06.469Z,7.57
2018-02-13T09:56:35.338Z,8.87
2018-02-13T09:59:04.174Z,8.57
2018-02-13T10:01:33.029Z,8.37
2018-02-13T10:04:01.882Z,4.53
2018-02-13T10:06:31.490Z,4.90
2018-02-13T10:09:01.082Z,10.23
2018-02-13T10:11:30.708Z,6.53
2018-02-13T10:14:00.301Z,5.40
2018-02-13T10:16:29.909Z,9.80
2018-02-13T10:18:58.734Z,7.43
2018-02-13T10:21:27.584Z,9.23
2018-02-13T10:23:56.440Z,5.43
2018-02-13T10:26:25.343Z,8.83
2018-02-13T10:28:54.187Z,5.83
2018-02-13T10:31:23.799Z,5.70
2018-02-13T10:33:52.648Z,4.70
2018-02-13T10:36:21.473Z,6.57
2018-02-13T10:38:50.306Z,7.63
2018-02-13T10:41:20.713Z,4.63
2018-02-13T10:43:49.554Z,10.00
2018-02-13T10:46:18.598Z,4.57
2018-02-13T10:48:48.234Z,5.63
2018-02-13T10:51:17.092Z,5.40
2018-02-13T10:53:45.945Z,6.03
2018-02-13T10:56:14.766Z,4.37
2018-02-13T10:58:43.581Z,5.47
2018-02-13T11:01:19.001Z,12.17
2018-02-13T11:03:49.561Z,5.90
2018-02-13T11:06:19.169Z,4.07
2018-02-13T11:08:48.017Z,5.67
2018-02-13T11:11:16.855Z,4.33
2018-02-13T11:13:45.717Z,5.67
2018-02-13T11:16:15.322Z,5.67
2018-02-13T11:18:44.943Z,4.43
2018-02-13T11:21:14.560Z,5.03
2018-02-13T11:23:43.730Z,5.80
2018-02-13T11:26:13.408Z,5.97
2018-02-13T11:28:42.205Z,5.63
2018-02-13T11:31:11.098Z,3.10
2018-02-13T11:33:39.947Z,5.87
2018-02-13T11:36:08.774Z,8.43
2018-02-13T11:38:37.622Z,5.63
2018-02-13T11:41:06.481Z,8.10
2018-02-13T11:43:36.111Z,7.47
2018-02-13T11:46:04.963Z,4.87
2018-02-13T11:48:33.802Z,5.43
2018-02-13T11:51:03.413Z,4.47
2018-02-13T11:53:33.013Z,4.80
2018-02-13T11:56:02.625Z,5.17
2018-02-13T11:58:32.241Z,2.83
2018-02-13T12:01:01.846Z,3.70
2018-02-13T12:03:31.490Z,3.93
2018-02-13T12:06:00.322Z,5.77
2018-02-13T12:08:29.156Z,6.80
2018-02-13T12:10:58.051Z,6.07
2018-02-13T12:13:26.882Z,5.57
2018-02-13T12:15:55.728Z,5.23
2018-02-13T12:18:24.571Z,7.77
2018-02-13T12:20:53.458Z,3.50
2018-02-13T12:23:22.307Z,7.23
2018-02-13T12:25:51.178Z,6.17
2018-02-13T12:28:20.033Z,5.40
2018-02-13T12:30:48.885Z,3.17
2018-02-13T12:33:18.555Z,5.13
2018-02-13T12:35:48.177Z,5.40
2018-02-13T12:38:17.057Z,5.53
2018-02-13T12:40:46.693Z,3.93
2018-02-13T12:43:16.255Z,4.93
2018-02-13T12:45:48.773Z,5.93
2018-02-13T12:48:17.626Z,3.93
2018-02-13T12:50:47.385Z,7.40
2018-02-13T12:53:16.405Z,6.10
2018-02-13T12:55:46.230Z,5.63
2018-02-13T12:58:15.817Z,4.10
2018-02-13T13:00:45.421Z,3.23
2018-02-13T13:03:14.269Z,7.37
2018-02-13T13:05:43.100Z,7.23
2018-02-13T13:08:13.033Z,5.07
2018-02-13T13:10:42.649Z,7.10
2018-02-13T13:13:12.269Z,2.63
2018-02-13T13:15:41.108Z,4.83
2018-02-13T13:18:09.931Z,4.53
2018-02-13T13:20:39.601Z,4.40
2018-02-13T13:23:08.442Z,4.73
2018-02-13T13:25:37.282Z,4.00
2018-02-13T13:28:06.125Z,5.00
2018-02-13T13:30:34.966Z,2.77
2018-02-13T13:33:03.795Z,4.73
2018-02-13T13:35:33.393Z,2.07
2018-02-13T13:38:02.990Z,8.73
2018-02-13T13:40:32.595Z,5.70
2018-02-13T13:43:02.636Z,5.67
2018-02-13T13:45:31.700Z,4.57
2018-02-13T13:48:00.532Z,5.60
2018-02-13T13:50:30.122Z,5.93
2018-02-13T13:52:58.968Z,12.90
2018-02-13T13:55:27.798Z,6.77
2018-02-13T13:57:58.746Z,4.83
2018-02-13T14:00:28.351Z,5.53
2018-02-13T14:02:57.199Z,6.30
2018-02-13T14:05:26.034Z,4.80
2018-02-13T14:07:55.643Z,5.60
2018-02-13T14:10:25.249Z,9.40
2018-02-13T14:12:54.876Z,5.40
2018-02-13T14:15:24.863Z,5.90
2018-02-13T14:17:53.700Z,6.57
2018-02-13T14:20:22.526Z,4.90
2018-02-13T14:22:51.801Z,4.53
2018-02-13T14:25:20.618Z,4.40
2018-02-13T14:27:50.351Z,3.50
2018-02-13T14:30:19.230Z,6.73
2018-02-13T14:32:48.054Z,4.50
2018-02-13T14:35:16.917Z,8.90
2018-02-13T14:37:46.511Z,6.47
2018-02-13T14:40:15.364Z,4.30
2018-02-13T14:42:44.191Z,4.80
2018-02-13T14:45:13.010Z,6.73
2018-02-13T14:47:42.761Z,7.27
2018-02-13T14:50:11.614Z,8.47
2018-02-13T14:52:41.276Z,5.27
2018-02-13T14:55:10.125Z,4.03
2018-02-13T14:57:39.732Z,5.63
2018-02-13T15:00:10.060Z,6.73
2018-02-13T15:02:39.087Z,3.90
2018-02-13T15:05:07.902Z,8.60
2018-02-13T15:07:36.733Z,7.33
2018-02-13T15:10:06.340Z,6.00
2018-02-13T15:12:35.962Z,4.93
2018-02-13T15:15:08.287Z,5.50
2018-02-13T15:17:37.182Z,4.60
2018-02-13T15:20:06.024Z,9.07
2018-02-13T15:22:35.005Z,7.27
2018-02-13T15:25:03.854Z,12.30
2018-02-13T15:27:33.458Z,6.70
2018-02-13T15:30:02.294Z,9.63
2018-02-13T15:32:31.142Z,3.50
2018-02-13T15:34:59.979Z,5.93
2018-02-13T15:37:28.901Z,4.97
2018-02-13T15:39:57.759Z,10.53
2018-02-13T15:42:26.642Z,3.40
2018-02-13T15:44:55.574Z,6.77
2018-02-13T15:47:28.078Z,5.20
2018-02-13T15:49:56.918Z,6.73
2018-02-13T15:52:25.765Z,3.77
2018-02-13T15:54:54.593Z,4.10
2018-02-13T15:57:23.453Z,8.73
2018-02-13T15:59:52.272Z,6.40
2018-02-13T16:02:21.125Z,5.07
2018-02-13T16:04:49.975Z,4.70
2018-02-13T16:07:18.821Z,9.93
2018-02-13T16:09:48.417Z,5.33
2018-02-13T16:12:18.040Z,5.70
2018-02-13T16:14:46.896Z,4.60
2018-02-13T16:17:15.728Z,6.07
2018-02-13T16:19:44.569Z,5.70
2018-02-13T16:22:14.342Z,6.30
2018-02-13T16:24:43.188Z,5.93
2018-02-13T16:27:12.038Z,5.50
2018-02-13T16:29:40.872Z,11.13
2018-02-13T16:32:10.499Z,9.70
2018-02-13T16:34:39.318Z,8.30
2018-02-13T16:37:08.170Z,11.50
2018-02-13T16:39:37.049Z,8.97
2018-02-13T16:42:06.654Z,8.23
2018-02-13T16:44:35.578Z,8.03
2018-02-13T16:47:04.619Z,8.43
2018-02-13T16:49:33.502Z,8.00
2018-02-13T16:52:02.321Z,8.33
2018-02-13T16:54:31.200Z,5.70
2018-02-13T16:57:00.026Z,10.17
2018-02-13T16:59:29.629Z,7.60
2018-02-13T17:01:59.238Z,6.50
2018-02-13T17:04:28.863Z,9.50
2018-02-13T17:06:57.727Z,12.10
2018-02-13T17:09:27.364Z,11.20
2018-02-13T17:11:56.942Z,10.57
2018-02-13T17:14:26.577Z,22.03
2018-02-13T17:16:56.182Z,16.37
2018-02-13T17:19:25.043Z,14.73
2018-02-13T17:21:55.006Z,14.27
2018-02-13T17:24:24.145Z,12.40
2018-02-13T17:26:53.818Z,11.70
2018-02-13T17:29:22.665Z,14.63
2018-02-13T17:31:52.357Z,17.60
2018-02-13T17:34:21.178Z,9.13
2018-02-13T17:36:50.052Z,6.23
2018-02-13T17:39:19.643Z,7.30
2018-02-13T17:41:49.266Z,7.67
2018-02-13T17:44:18.862Z,7.20
2018-02-13T17:46:48.465Z,7.80
2018-02-13T17:49:18.064Z,10.87
2018-02-13T17:51:46.928Z,11.13
2018-02-13T17:54:15.750Z,7.33
2018-02-13T17:56:44.629Z,10.03
2018-02-13T17:59:13.443Z,8.67
2018-02-13T18:01:42.293Z,7.90
2018-02-13T18:04:11.175Z,7.63
2018-02-13T18:06:40.027Z,13.10
2018-02-13T18:09:09.650Z,7.17
2018-02-13T18:11:38.505Z,15.80
2018-02-13T18:14:07.342Z,6.90
2018-02-13T18:16:36.177Z,7.30
2018-02-13T18:19:05.846Z,6.80
2018-02-13T18:21:34.669Z,11.10
2018-02-13T18:24:03.548Z,9.90
2018-02-13T18:26:32.442Z,9.77
2018-02-13T18:29:01.294Z,6.80
2018-02-13T18:31:30.099Z,8.50
2018-02-13T18:33:58.931Z,8.13
2018-02-13T18:36:27.775Z,10.40
2018-02-13T18:38:56.665Z,8.77
2018-02-13T18:41:26.325Z,12.30
2018-02-13T18:43:55.942Z,6.83
2018-02-13T18:46:26.497Z,11.87
2018-02-13T18:48:55.383Z,13.87
2018-02-13T18:51:24.215Z,10.37
2018-02-13T18:53:53.623Z,14.67
2018-02-13T18:56:22.476Z,11.50
2018-02-13T18:58:52.096Z,10.73
2018-02-13T19:01:20.966Z,14.53
2018-02-13T19:03:50.561Z,10.53
2018-02-13T19:06:20.173Z,15.93
2018-02-13T19:08:49.794Z,12.00
2018-02-13T19:11:19.342Z,11.30
2018-02-13T19:13:48.170Z,10.63
2018-02-13T19:16:17.039Z,11.30
2018-02-13T19:18:45.863Z,14.33
2018-02-13T19:21:15.436Z,12.83
2018-02-13T19:23:44.454Z,11.57
2018-02-13T19:26:13.268Z,15.67
2018-02-13T19:28:42.120Z,10.73
2018-02-13T19:31:10.967Z,12.17
2018-02-13T19:33:39.843Z,12.20
2018-02-13T19:36:08.687Z,14.37
2018-02-13T19:38:37.520Z,10.93
2018-02-13T19:41:06.354Z,14.13
2018-02-13T19:43:35.260Z,16.13
2018-02-13T19:46:04.137Z,13.03
2018-02-13T19:48:33.032Z,13.47
2018-02-13T19:51:01.873Z,12.90
2018-02-13T19:53:31.245Z,14.77
2018-02-13T19:56:00.838Z,14.93
2018-02-13T19:58:29.766Z,13.87
2018-02-13T20:00:58.607Z,16.00
2018-02-13T20:03:28.264Z,15.70
2018-02-13T20:05:57.087Z,11.57
2018-02-13T20:08:25.949Z,15.70
2018-02-13T20:10:55.537Z,10.40
2018-02-13T20:13:24.380Z,12.17
2018-02-13T20:15:54.147Z,12.67
2018-02-13T20:18:23.025Z,19.07
2018-02-13T20:20:51.922Z,16.00
2018-02-13T20:23:20.762Z,15.37
2018-02-13T20:25:50.519Z,19.57
2018-02-13T20:28:19.408Z,13.13
2018-02-13T20:30:48.844Z,14.13
2018-02-13T20:33:17.688Z,18.40
2018-02-13T20:35:46.621Z,15.57
2018-02-13T20:38:15.472Z,18.27
2018-02-13T20:40:44.339Z,18.20
2018-02-13T20:43:13.278Z,18.97
2018-02-13T20:45:42.135Z,14.90
2018-02-13T20:48:10.989Z,27.37
2018-02-13T20:50:40.651Z,21.57
2018-02-13T20:53:09.530Z,17.47
2018-02-13T20:55:38.363Z,17.43
2018-02-13T20:58:07.227Z,21.17
2018-02-13T21:00:36.085Z,20.23
2018-02-13T21:03:04.980Z,14.20
2018-02-13T21:05:34.646Z,16.57
2018-02-13T21:08:03.563Z,17.47
2018-02-13T21:10:32.391Z,17.27
2018-02-13T21:13:01.995Z,16.33
2018-02-13T21:15:31.670Z,16.90
2018-02-13T21:18:00.521Z,14.40
2018-02-13T21:20:29.394Z,23.37
2018-02-13T21:22:59.019Z,16.00
2018-02-13T21:25:27.898Z,20.13
2018-02-13T21:27:56.759Z,14.73
2018-02-13T21:30:26.371Z,17.80
2018-02-13T21:32:55.994Z,17.10
2018-02-13T21:35:24.875Z,17.67
2018-02-13T21:37:54.474Z,17.60
2018-02-13T21:40:24.126Z,15.93
2018-02-13T21:42:52.961Z,21.77
2018-02-13T21:45:21.838Z,18.17
2018-02-13T21:47:51.094Z,17.57
2018-02-13T21:50:20.183Z,18.70
2018-02-13T21:52:49.034Z,21.63
2018-02-13T21:55:18.690Z,17.80
2018-02-13T21:57:47.556Z,21.57
2018-02-13T22:00:16.417Z,15.50
2018-02-13T22:02:45.260Z,17.13
2018-02-13T22:05:14.671Z,20.63
2018-02-13T22:07:43.518Z,25.17
2018-02-13T22:10:12.380Z,23.40
2018-02-13T22:12:41.243Z,24.67
2018-02-13T22:15:10.846Z,24.80
2018-02-13T22:17:40.504Z,28.67
2018-02-13T22:20:09.326Z,22.00
2018-02-13T22:22:38.766Z,20.90
2018-02-13T22:25:07.595Z,23.83
2018-02-13T22:27:37.082Z,24.20
2018-02-13T22:30:05.917Z,23.53
2018-02-13T22:32:35.771Z,22.03
2018-02-13T22:35:05.395Z,25.97
2018-02-13T22:37:34.266Z,20.33
2018-02-13T22:40:03.107Z,22.83
2018-02-13T22:42:31.957Z,22.87
2018-02-13T22:45:00.815Z,26.83
2018-02-13T22:47:30.770Z,22.53
2018-02-13T22:49:59.590Z,22.70
2018-02-13T22:52:29.982Z,18.20
2018-02-13T22:54:59.343Z,20.10
2018-02-13T22:57:28.970Z,23.50
2018-02-13T22:59:57.852Z,18.83
2018-02-13T23:02:27.440Z,17.60
2018-02-13T23:04:57.077Z,18.77
2018-02-13T23:07:25.919Z,25.27
2018-02-13T23:09:54.761Z,20.23
2018-02-13T23:12:24.915Z,16.70
2018-02-13T23:14:53.755Z,17.47
2018-02-13T23:17:23.374Z,19.97
2018-02-13T23:19:52.990Z,20.63
2018-02-13T23:22:22.595Z,12.30
2018-02-13T23:24:52.191Z,13.23
2018-02-13T23:27:21.887Z,15.70
2018-02-13T23:29:50.931Z,11.50
2018-02-13T23:32:19.776Z,14.93
2018-02-13T23:34:48.729Z,12.60
2018-02-13T23:37:17.604Z,13.53
2018-02-13T23:39:46.431Z,12.00
2018-02-13T23:42:15.283Z,14.53
2018-02-13T23:44:44.110Z,14.27
2018-02-13T23:47:13.013Z,14.03
2018-02-13T23:49:41.813Z,17.83
2018-02-13T23:52:11.431Z,22.50
2018-02-13T23:54:40.262Z,16.80
2018-02-13T23:57:09.123Z,15.70
2018-02-13T23:59:37.972Z,18.80
